sensor_id;sensor_type;location;lat;lon;timestamp;pressure;altitude;pressure_sealevel;temperature;humidity
72210;BME280;60113;48.762;12.302;2023-12-29T00:00:30;97354.66;;;5.69;93.31
72210;BME280;60113;48.762;12.302;2023-12-29T00:02:55;97358.97;;;5.70;93.82
72210;BME280;60113;48.762;12.302;2023-12-29T00:05:21;97355.59;;;5.68;93.47
72210;BME280;60113;48.762;12.302;2023-12-29T00:07:46;97361.06;;;5.63;93.57
72210;BME280;60113;48.762;12.302;2023-12-29T00:10:11;97358.78;;;5.57;93.41
72210;BME280;60113;48.762;12.302;2023-12-29T00:12:37;97360.78;;;5.52;93.81
72210;BME280;60113;48.762;12.302;2023-12-29T00:15:02;97362.91;;;5.45;93.41
72210;BME280;60113;48.762;12.302;2023-12-29T00:17:28;97361.53;;;5.38;94.12
72210;BME280;60113;48.762;12.302;2023-12-29T00:19:53;97359.34;;;5.30;94.04
72210;BME280;60113;48.762;12.302;2023-12-29T00:22:19;97362.44;;;5.21;94.39
72210;BME280;60113;48.762;12.302;2023-12-29T00:24:44;97354.09;;;5.14;94.23
72210;BME280;60113;48.762;12.302;2023-12-29T00:27:10;97358.53;;;5.12;95.43
72210;BME280;60113;48.762;12.302;2023-12-29T00:29:36;97356.09;;;5.09;94.69
72210;BME280;60113;48.762;12.302;2023-12-29T00:32:01;97351.97;;;5.05;94.61
72210;BME280;60113;48.762;12.302;2023-12-29T00:34:27;97354.81;;;5.00;93.73
72210;BME280;60113;48.762;12.302;2023-12-29T00:36:53;97363.97;;;4.91;94.24
72210;BME280;60113;48.762;12.302;2023-12-29T00:39:18;97358.06;;;4.87;94.71
72210;BME280;60113;48.762;12.302;2023-12-29T00:41:43;97353.69;;;4.88;94.63
72210;BME280;60113;48.762;12.302;2023-12-29T00:44:09;97349.16;;;4.92;95.78
72210;BME280;60113;48.762;12.302;2023-12-29T00:46:34;97348.91;;;4.96;95.61
72210;BME280;60113;48.762;12.302;2023-12-29T00:48:59;97343.63;;;4.98;94.74
72210;BME280;60113;48.762;12.302;2023-12-29T00:51:25;97342.03;;;4.95;95.05
72210;BME280;60113;48.762;12.302;2023-12-29T00:53:50;97334.63;;;4.87;95.23
72210;BME280;60113;48.762;12.302;2023-12-29T00:56:15;97340.22;;;4.80;95.32
72210;BME280;60113;48.762;12.302;2023-12-29T00:58:41;97338.09;;;4.70;95.39
72210;BME280;60113;48.762;12.302;2023-12-29T01:01:07;97341.00;;;4.64;95.75
72210;BME280;60113;48.762;12.302;2023-12-29T01:03:37;97347.59;;;4.54;94.72
72210;BME280;60113;48.762;12.302;2023-12-29T01:06:02;97346.28;;;4.45;94.80
72210;BME280;60113;48.762;12.302;2023-12-29T01:08:28;97349.34;;;4.35;95.31
72210;BME280;60113;48.762;12.302;2023-12-29T01:10:53;97348.66;;;4.32;95.62
72210;BME280;60113;48.762;12.302;2023-12-29T01:13:19;97349.50;;;4.32;96.30
72210;BME280;60113;48.762;12.302;2023-12-29T01:15:44;97345.97;;;4.33;96.58
72210;BME280;60113;48.762;12.302;2023-12-29T01:18:11;97358.84;;;4.36;96.56
72210;BME280;60113;48.762;12.302;2023-12-29T01:20:37;97356.09;;;4.40;96.18
72210;BME280;60113;48.762;12.302;2023-12-29T01:23:05;97352.47;;;4.42;95.84
72210;BME280;60113;48.762;12.302;2023-12-29T01:25:30;97351.50;;;4.45;95.95
72210;BME280;60113;48.762;12.302;2023-12-29T01:27:55;97361.75;;;4.48;95.92
72210;BME280;60113;48.762;12.302;2023-12-29T01:30:21;97354.78;;;4.48;95.48
72210;BME280;60113;48.762;12.302;2023-12-29T01:32:46;97353.94;;;4.48;95.34
72210;BME280;60113;48.762;12.302;2023-12-29T01:35:12;97346.22;;;4.46;96.03
72210;BME280;60113;48.762;12.302;2023-12-29T01:37:37;97347.13;;;4.45;95.78
72210;BME280;60113;48.762;12.302;2023-12-29T01:40:03;97335.81;;;4.46;95.94
72210;BME280;60113;48.762;12.302;2023-12-29T01:42:29;97342.69;;;4.47;95.64
72210;BME280;60113;48.762;12.302;2023-12-29T01:44:54;97332.06;;;4.52;96.57
72210;BME280;60113;48.762;12.302;2023-12-29T01:47:20;97331.75;;;4.58;96.76
72210;BME280;60113;48.762;12.302;2023-12-29T01:49:48;97334.91;;;4.65;97.11
72210;BME280;60113;48.762;12.302;2023-12-29T01:52:15;97326.75;;;4.71;97.27
72210;BME280;60113;48.762;12.302;2023-12-29T01:54:41;97330.75;;;4.79;97.27
72210;BME280;60113;48.762;12.302;2023-12-29T01:57:08;97322.59;;;4.85;96.64
72210;BME280;60113;48.762;12.302;2023-12-29T01:59:35;97320.50;;;4.92;97.25
72210;BME280;60113;48.762;12.302;2023-12-29T02:02:01;97315.75;;;5.00;97.04
72210;BME280;60113;48.762;12.302;2023-12-29T02:04:27;97316.28;;;5.07;96.60
72210;BME280;60113;48.762;12.302;2023-12-29T02:06:54;97315.09;;;5.12;96.59
72210;BME280;60113;48.762;12.302;2023-12-29T02:09:19;97306.13;;;5.18;96.98
72210;BME280;60113;48.762;12.302;2023-12-29T02:11:45;97308.22;;;5.28;96.31
72210;BME280;60113;48.762;12.302;2023-12-29T02:14:11;97313.03;;;5.35;96.11
72210;BME280;60113;48.762;12.302;2023-12-29T02:19:16;97307.75;;;5.53;96.20
72210;BME280;60113;48.762;12.302;2023-12-29T02:21:46;97311.78;;;5.59;94.96
72210;BME280;60113;48.762;12.302;2023-12-29T02:24:11;97298.25;;;5.68;94.73
72210;BME280;60113;48.762;12.302;2023-12-29T02:26:37;97298.75;;;5.75;94.18
72210;BME280;60113;48.762;12.302;2023-12-29T02:29:04;97286.28;;;5.80;94.61
72210;BME280;60113;48.762;12.302;2023-12-29T02:31:34;97283.59;;;5.82;94.30
72210;BME280;60113;48.762;12.302;2023-12-29T02:34:02;97285.22;;;5.84;94.33
72210;BME280;60113;48.762;12.302;2023-12-29T02:36:31;97278.13;;;5.86;94.10
72210;BME280;60113;48.762;12.302;2023-12-29T02:38:58;97286.88;;;5.85;93.99
72210;BME280;60113;48.762;12.302;2023-12-29T02:41:23;97285.03;;;5.87;94.24
72210;BME280;60113;48.762;12.302;2023-12-29T02:43:50;97287.63;;;5.87;94.34
72210;BME280;60113;48.762;12.302;2023-12-29T02:46:15;97283.41;;;5.85;94.26
72210;BME280;60113;48.762;12.302;2023-12-29T02:48:41;97284.53;;;5.81;94.46
72210;BME280;60113;48.762;12.302;2023-12-29T02:51:06;97276.03;;;5.77;94.48
72210;BME280;60113;48.762;12.302;2023-12-29T02:53:33;97272.84;;;5.72;95.13
72210;BME280;60113;48.762;12.302;2023-12-29T02:55:59;97271.41;;;5.66;95.04
72210;BME280;60113;48.762;12.302;2023-12-29T02:58:24;97270.84;;;5.61;94.86
72210;BME280;60113;48.762;12.302;2023-12-29T03:00:50;97265.88;;;5.56;95.03
72210;BME280;60113;48.762;12.302;2023-12-29T03:03:15;97268.84;;;5.50;95.02
72210;BME280;60113;48.762;12.302;2023-12-29T03:05:40;97256.97;;;5.44;95.24
72210;BME280;60113;48.762;12.302;2023-12-29T03:08:06;97238.88;;;5.41;95.17
72210;BME280;60113;48.762;12.302;2023-12-29T03:10:31;97239.13;;;5.36;95.02
72210;BME280;60113;48.762;12.302;2023-12-29T03:12:56;97244.53;;;5.33;95.19
72210;BME280;60113;48.762;12.302;2023-12-29T03:15:22;97243.69;;;5.33;95.21
72210;BME280;60113;48.762;12.302;2023-12-29T03:17:47;97242.84;;;5.32;94.99
72210;BME280;60113;48.762;12.302;2023-12-29T03:20:12;97241.09;;;5.33;95.61
72210;BME280;60113;48.762;12.302;2023-12-29T03:22:38;97258.31;;;5.35;95.68
72210;BME280;60113;48.762;12.302;2023-12-29T03:25:04;97243.34;;;5.39;94.70
72210;BME280;60113;48.762;12.302;2023-12-29T03:27:29;97232.84;;;5.41;95.23
72210;BME280;60113;48.762;12.302;2023-12-29T03:29:55;97236.34;;;5.40;95.10
72210;BME280;60113;48.762;12.302;2023-12-29T03:32:20;97235.78;;;5.34;94.82
72210;BME280;60113;48.762;12.302;2023-12-29T03:34:45;97238.72;;;5.28;94.57
72210;BME280;60113;48.762;12.302;2023-12-29T03:37:11;97231.41;;;5.19;94.95
72210;BME280;60113;48.762;12.302;2023-12-29T03:39:36;97236.03;;;5.13;95.36
72210;BME280;60113;48.762;12.302;2023-12-29T03:42:02;97236.28;;;5.09;95.18
72210;BME280;60113;48.762;12.302;2023-12-29T03:44:28;97233.09;;;5.04;94.70
72210;BME280;60113;48.762;12.302;2023-12-29T03:46:53;97224.53;;;5.02;94.88
72210;BME280;60113;48.762;12.302;2023-12-29T03:49:18;97229.81;;;5.00;95.25
72210;BME280;60113;48.762;12.302;2023-12-29T03:51:45;97235.09;;;4.98;95.40
72210;BME280;60113;48.762;12.302;2023-12-29T03:54:11;97233.50;;;4.96;95.10
72210;BME280;60113;48.762;12.302;2023-12-29T03:56:37;97245.84;;;4.92;95.38
72210;BME280;60113;48.762;12.302;2023-12-29T03:59:02;97236.19;;;4.94;96.06
72210;BME280;60113;48.762;12.302;2023-12-29T04:01:27;97229.03;;;4.98;95.30
72210;BME280;60113;48.762;12.302;2023-12-29T04:03:53;97234.78;;;5.05;95.21
72210;BME280;60113;48.762;12.302;2023-12-29T04:06:18;97238.88;;;5.09;95.38
72210;BME280;60113;48.762;12.302;2023-12-29T04:08:44;97239.56;;;5.12;95.13
72210;BME280;60113;48.762;12.302;2023-12-29T04:11:09;97242.78;;;5.18;95.20
72210;BME280;60113;48.762;12.302;2023-12-29T04:13:35;97241.59;;;5.23;94.93
72210;BME280;60113;48.762;12.302;2023-12-29T04:16:00;97234.84;;;5.35;94.32
72210;BME280;60113;48.762;12.302;2023-12-29T04:18:26;97235.47;;;5.41;94.14
72210;BME280;60113;48.762;12.302;2023-12-29T04:20:52;97238.72;;;5.44;93.46
72210;BME280;60113;48.762;12.302;2023-12-29T04:23:17;97241.16;;;5.47;93.47
72210;BME280;60113;48.762;12.302;2023-12-29T04:25:43;97233.16;;;5.50;93.13
72210;BME280;60113;48.762;12.302;2023-12-29T04:28:09;97236.53;;;5.53;93.21
72210;BME280;60113;48.762;12.302;2023-12-29T04:30:34;97221.66;;;5.55;92.39
72210;BME280;60113;48.762;12.302;2023-12-29T04:33:00;97220.63;;;5.57;92.49
72210;BME280;60113;48.762;12.302;2023-12-29T04:35:26;97218.88;;;5.58;92.24
72210;BME280;60113;48.762;12.302;2023-12-29T04:37:51;97222.22;;;5.60;92.08
72210;BME280;60113;48.762;12.302;2023-12-29T04:40:17;97220.47;;;5.60;91.93
72210;BME280;60113;48.762;12.302;2023-12-29T04:42:43;97217.84;;;5.60;92.23
72210;BME280;60113;48.762;12.302;2023-12-29T04:45:09;97220.53;;;5.59;92.61
72210;BME280;60113;48.762;12.302;2023-12-29T04:47:35;97224.19;;;5.56;92.17
72210;BME280;60113;48.762;12.302;2023-12-29T04:50:01;97233.00;;;5.54;92.53
72210;BME280;60113;48.762;12.302;2023-12-29T04:52:27;97228.03;;;5.49;92.83
72210;BME280;60113;48.762;12.302;2023-12-29T04:54:52;97233.34;;;5.47;92.56
72210;BME280;60113;48.762;12.302;2023-12-29T04:57:18;97229.06;;;5.46;92.77
72210;BME280;60113;48.762;12.302;2023-12-29T04:59:43;97229.13;;;5.45;92.60
72210;BME280;60113;48.762;12.302;2023-12-29T05:02:08;97223.00;;;5.46;92.41
72210;BME280;60113;48.762;12.302;2023-12-29T05:04:34;97223.84;;;5.46;92.26
72210;BME280;60113;48.762;12.302;2023-12-29T05:06:59;97222.00;;;5.48;92.34
72210;BME280;60113;48.762;12.302;2023-12-29T05:09:25;97227.13;;;5.50;92.33
72210;BME280;60113;48.762;12.302;2023-12-29T05:11:50;97213.25;;;5.49;91.99
72210;BME280;60113;48.762;12.302;2023-12-29T05:14:15;97205.44;;;5.49;91.87
72210;BME280;60113;48.762;12.302;2023-12-29T05:16:42;97207.25;;;5.47;92.15
72210;BME280;60113;48.762;12.302;2023-12-29T05:19:07;97215.00;;;5.49;91.96
72210;BME280;60113;48.762;12.302;2023-12-29T05:21:33;97214.19;;;5.48;91.56
72210;BME280;60113;48.762;12.302;2023-12-29T05:23:58;97218.63;;;5.46;92.00
72210;BME280;60113;48.762;12.302;2023-12-29T05:26:24;97214.53;;;5.42;91.99
72210;BME280;60113;48.762;12.302;2023-12-29T05:28:50;97217.28;;;5.39;92.20
72210;BME280;60113;48.762;12.302;2023-12-29T05:31:15;97227.03;;;5.35;92.28
72210;BME280;60113;48.762;12.302;2023-12-29T05:33:41;97229.81;;;5.32;92.40
72210;BME280;60113;48.762;12.302;2023-12-29T05:36:07;97223.88;;;5.30;92.86
72210;BME280;60113;48.762;12.302;2023-12-29T05:38:34;97219.47;;;5.31;92.35
72210;BME280;60113;48.762;12.302;2023-12-29T05:41:01;97220.06;;;5.36;91.74
72210;BME280;60113;48.762;12.302;2023-12-29T05:43:27;97224.25;;;5.38;91.63
72210;BME280;60113;48.762;12.302;2023-12-29T05:45:53;97225.13;;;5.39;91.05
72210;BME280;60113;48.762;12.302;2023-12-29T05:48:18;97225.13;;;5.39;90.96
72210;BME280;60113;48.762;12.302;2023-12-29T05:50:44;97221.56;;;5.40;90.77
72210;BME280;60113;48.762;12.302;2023-12-29T05:53:09;97224.19;;;5.40;90.54
72210;BME280;60113;48.762;12.302;2023-12-29T05:55:34;97225.84;;;5.41;90.64
72210;BME280;60113;48.762;12.302;2023-12-29T05:58:00;97224.88;;;5.44;90.03
72210;BME280;60113;48.762;12.302;2023-12-29T06:00:25;97222.09;;;5.47;89.36
72210;BME280;60113;48.762;12.302;2023-12-29T06:02:51;97222.00;;;5.48;89.99
72210;BME280;60113;48.762;12.302;2023-12-29T06:05:16;97220.03;;;5.52;89.08
72210;BME280;60113;48.762;12.302;2023-12-29T06:07:41;97221.66;;;5.55;89.32
72210;BME280;60113;48.762;12.302;2023-12-29T06:10:07;97215.50;;;5.56;89.21
72210;BME280;60113;48.762;12.302;2023-12-29T06:12:34;97221.66;;;5.55;89.12
72210;BME280;60113;48.762;12.302;2023-12-29T06:14:59;97228.63;;;5.54;89.18
72210;BME280;60113;48.762;12.302;2023-12-29T06:17:25;97239.81;;;5.56;89.56
72210;BME280;60113;48.762;12.302;2023-12-29T06:19:50;97237.78;;;5.61;88.93
72210;BME280;60113;48.762;12.302;2023-12-29T06:22:16;97240.28;;;5.63;88.81
72210;BME280;60113;48.762;12.302;2023-12-29T06:24:41;97241.06;;;5.65;88.65
72210;BME280;60113;48.762;12.302;2023-12-29T06:27:11;97243.75;;;5.63;88.24
72210;BME280;60113;48.762;12.302;2023-12-29T06:29:36;97243.66;;;5.65;87.90
72210;BME280;60113;48.762;12.302;2023-12-29T06:32:02;97251.41;;;5.67;87.78
72210;BME280;60113;48.762;12.302;2023-12-29T06:34:28;97258.13;;;5.71;87.77
72210;BME280;60113;48.762;12.302;2023-12-29T06:36:53;97252.72;;;5.74;86.98
72210;BME280;60113;48.762;12.302;2023-12-29T06:39:19;97257.69;;;5.79;87.02
72210;BME280;60113;48.762;12.302;2023-12-29T06:41:44;97257.59;;;5.80;86.72
72210;BME280;60113;48.762;12.302;2023-12-29T06:44:10;97248.03;;;5.81;86.72
72210;BME280;60113;48.762;12.302;2023-12-29T06:46:39;97238.63;;;5.78;86.40
72210;BME280;60113;48.762;12.302;2023-12-29T06:49:08;97232.81;;;5.73;86.68
72210;BME280;60113;48.762;12.302;2023-12-29T06:51:34;97237.44;;;5.68;86.95
72210;BME280;60113;48.762;12.302;2023-12-29T06:54:01;97241.31;;;5.60;86.89
72210;BME280;60113;48.762;12.302;2023-12-29T06:56:26;97241.75;;;5.53;87.07
72210;BME280;60113;48.762;12.302;2023-12-29T06:58:52;97240.41;;;5.45;86.71
72210;BME280;60113;48.762;12.302;2023-12-29T07:01:17;97243.28;;;5.41;87.23
72210;BME280;60113;48.762;12.302;2023-12-29T07:03:43;97238.97;;;5.40;86.85
72210;BME280;60113;48.762;12.302;2023-12-29T07:06:09;97238.22;;;5.37;87.18
72210;BME280;60113;48.762;12.302;2023-12-29T07:08:35;97234.84;;;5.35;87.52
72210;BME280;60113;48.762;12.302;2023-12-29T07:11:01;97236.72;;;5.33;87.55
72210;BME280;60113;48.762;12.302;2023-12-29T07:13:26;97260.50;;;5.27;87.99
72210;BME280;60113;48.762;12.302;2023-12-29T07:15:52;97256.28;;;5.24;88.54
72210;BME280;60113;48.762;12.302;2023-12-29T07:18:17;97251.31;;;5.20;88.74
72210;BME280;60113;48.762;12.302;2023-12-29T07:20:42;97253.28;;;5.16;88.91
72210;BME280;60113;48.762;12.302;2023-12-29T07:23:08;97268.13;;;5.14;88.76
72210;BME280;60113;48.762;12.302;2023-12-29T07:25:33;97264.03;;;5.10;88.62
72210;BME280;60113;48.762;12.302;2023-12-29T07:27:59;97266.78;;;5.07;88.48
72210;BME280;60113;48.762;12.302;2023-12-29T07:30:24;97259.88;;;5.06;88.42
72210;BME280;60113;48.762;12.302;2023-12-29T07:32:51;97259.06;;;5.05;88.36
72210;BME280;60113;48.762;12.302;2023-12-29T07:35:16;97254.03;;;5.02;88.09
72210;BME280;60113;48.762;12.302;2023-12-29T07:37:46;97249.88;;;4.98;88.44
72210;BME280;60113;48.762;12.302;2023-12-29T07:40:22;97245.94;;;4.91;88.50
72210;BME280;60113;48.762;12.302;2023-12-29T07:42:48;97255.81;;;4.84;89.15
72210;BME280;60113;48.762;12.302;2023-12-29T07:45:15;97260.59;;;4.75;89.11
72210;BME280;60113;48.762;12.302;2023-12-29T07:47:41;97250.44;;;4.71;89.25
72210;BME280;60113;48.762;12.302;2023-12-29T07:50:06;97256.81;;;4.65;89.81
72210;BME280;60113;48.762;12.302;2023-12-29T07:52:32;97254.59;;;4.57;90.67
72210;BME280;60113;48.762;12.302;2023-12-29T07:54:57;97258.25;;;4.53;90.50
72210;BME280;60113;48.762;12.302;2023-12-29T07:57:23;97252.38;;;4.49;90.48
72210;BME280;60113;48.762;12.302;2023-12-29T07:59:48;97254.38;;;4.44;90.57
72210;BME280;60113;48.762;12.302;2023-12-29T08:02:14;97259.66;;;4.43;91.04
72210;BME280;60113;48.762;12.302;2023-12-29T08:04:39;97262.03;;;4.47;90.76
72210;BME280;60113;48.762;12.302;2023-12-29T08:07:05;97258.88;;;4.58;90.87
72210;BME280;60113;48.762;12.302;2023-12-29T08:09:30;97265.19;;;4.70;90.65
72210;BME280;60113;48.762;12.302;2023-12-29T08:11:55;97264.63;;;4.81;89.74
72210;BME280;60113;48.762;12.302;2023-12-29T08:14:21;97263.81;;;4.97;89.92
72210;BME280;60113;48.762;12.302;2023-12-29T08:16:47;97270.91;;;5.11;89.16
72210;BME280;60113;48.762;12.302;2023-12-29T08:19:12;97270.41;;;5.20;89.13
72210;BME280;60113;48.762;12.302;2023-12-29T08:21:38;97279.50;;;5.29;89.60
72210;BME280;60113;48.762;12.302;2023-12-29T08:24:03;97284.44;;;5.34;89.49
72210;BME280;60113;48.762;12.302;2023-12-29T08:26:29;97276.47;;;5.37;89.75
72210;BME280;60113;48.762;12.302;2023-12-29T08:28:54;97264.94;;;5.41;89.66
72210;BME280;60113;48.762;12.302;2023-12-29T08:31:20;97272.44;;;5.47;89.78
72210;BME280;60113;48.762;12.302;2023-12-29T08:33:47;97258.16;;;5.55;90.20
72210;BME280;60113;48.762;12.302;2023-12-29T08:36:12;97276.63;;;5.66;89.48
72210;BME280;60113;48.762;12.302;2023-12-29T08:38:38;97272.59;;;5.77;88.84
72210;BME280;60113;48.762;12.302;2023-12-29T08:41:04;97270.28;;;5.86;88.91
72210;BME280;60113;48.762;12.302;2023-12-29T08:43:30;97268.09;;;5.95;89.04
72210;BME280;60113;48.762;12.302;2023-12-29T08:45:55;97270.22;;;6.04;88.31
72210;BME280;60113;48.762;12.302;2023-12-29T08:48:21;97275.81;;;6.12;88.58
72210;BME280;60113;48.762;12.302;2023-12-29T08:50:47;97281.44;;;6.21;88.01
72210;BME280;60113;48.762;12.302;2023-12-29T08:53:13;97284.53;;;6.28;87.84
72210;BME280;60113;48.762;12.302;2023-12-29T08:55:38;97271.13;;;6.34;88.20
72210;BME280;60113;48.762;12.302;2023-12-29T08:58:04;97260.44;;;6.38;87.87
72210;BME280;60113;48.762;12.302;2023-12-29T09:00:29;97266.56;;;6.37;88.17
72210;BME280;60113;48.762;12.302;2023-12-29T09:02:56;97258.81;;;6.36;88.55
72210;BME280;60113;48.762;12.302;2023-12-29T09:05:21;97252.69;;;6.37;87.69
72210;BME280;60113;48.762;12.302;2023-12-29T09:07:47;97250.72;;;6.41;87.48
72210;BME280;60113;48.762;12.302;2023-12-29T09:10:12;97241.78;;;6.45;87.43
72210;BME280;60113;48.762;12.302;2023-12-29T09:12:38;97251.97;;;6.49;86.91
72210;BME280;60113;48.762;12.302;2023-12-29T09:15:05;97257.72;;;6.55;86.99
72210;BME280;60113;48.762;12.302;2023-12-29T09:17:31;97259.97;;;6.61;86.26
72210;BME280;60113;48.762;12.302;2023-12-29T09:19:56;97260.56;;;6.66;86.39
72210;BME280;60113;48.762;12.302;2023-12-29T09:22:22;97251.41;;;6.73;86.25
72210;BME280;60113;48.762;12.302;2023-12-29T09:24:47;97256.16;;;6.81;86.29
72210;BME280;60113;48.762;12.302;2023-12-29T09:27:12;97263.44;;;6.91;86.17
72210;BME280;60113;48.762;12.302;2023-12-29T09:29:39;97258.50;;;7.00;85.76
72210;BME280;60113;48.762;12.302;2023-12-29T09:32:05;97262.97;;;7.13;85.52
72210;BME280;60113;48.762;12.302;2023-12-29T09:34:31;97259.59;;;7.25;84.93
72210;BME280;60113;48.762;12.302;2023-12-29T09:36:56;97253.56;;;7.38;85.15
72210;BME280;60113;48.762;12.302;2023-12-29T09:39:21;97245.41;;;7.57;86.88
72210;BME280;60113;48.762;12.302;2023-12-29T09:41:51;97249.31;;;7.92;86.12
72210;BME280;60113;48.762;12.302;2023-12-29T09:44:20;97248.75;;;8.28;87.95
72210;BME280;60113;48.762;12.302;2023-12-29T09:46:49;97246.00;;;8.57;84.29
72210;BME280;60113;48.762;12.302;2023-12-29T09:49:18;97268.81;;;8.81;84.02
72210;BME280;60113;48.762;12.302;2023-12-29T09:51:44;97269.97;;;9.03;86.09
72210;BME280;60113;48.762;12.302;2023-12-29T09:54:10;97266.69;;;9.25;86.10
72210;BME280;60113;48.762;12.302;2023-12-29T09:56:37;97272.63;;;9.40;82.39
72210;BME280;60113;48.762;12.302;2023-12-29T09:59:03;97282.88;;;9.56;83.64
72210;BME280;60113;48.762;12.302;2023-12-29T10:01:30;97280.69;;;9.74;82.42
72210;BME280;60113;48.762;12.302;2023-12-29T10:03:56;97282.09;;;9.92;82.06
72210;BME280;60113;48.762;12.302;2023-12-29T10:06:24;97266.66;;;10.11;82.22
72210;BME280;60113;48.762;12.302;2023-12-29T10:08:50;97272.72;;;10.36;84.84
72210;BME280;60113;48.762;12.302;2023-12-29T10:11:18;97265.75;;;10.60;81.08
72210;BME280;60113;48.762;12.302;2023-12-29T10:13:44;97269.47;;;10.69;79.90
72210;BME280;60113;48.762;12.302;2023-12-29T10:19:16;97245.00;;;11.03;75.15
72210;BME280;60113;48.762;12.302;2023-12-29T10:21:54;97249.28;;;11.27;78.05
72210;BME280;60113;48.762;12.302;2023-12-29T10:24:21;97237.75;;;11.50;84.69
72210;BME280;60113;48.762;12.302;2023-12-29T10:26:49;97230.88;;;11.71;87.19
72210;BME280;60113;48.762;12.302;2023-12-29T10:29:14;97227.47;;;11.92;85.97
72210;BME280;60113;48.762;12.302;2023-12-29T10:31:40;97237.47;;;12.09;83.36
72210;BME280;60113;48.762;12.302;2023-12-29T10:34:23;97235.38;;;11.92;79.25
72210;BME280;60113;48.762;12.302;2023-12-29T10:37:00;97224.31;;;11.65;82.37
72210;BME280;60113;48.762;12.302;2023-12-29T10:39:28;97239.25;;;11.32;83.13
72210;BME280;60113;48.762;12.302;2023-12-29T10:42:14;97234.59;;;10.90;76.58
72210;BME280;60113;48.762;12.302;2023-12-29T10:44:39;97229.59;;;10.86;82.17
72210;BME280;60113;48.762;12.302;2023-12-29T10:47:09;97230.91;;;10.69;82.22
72210;BME280;60113;48.762;12.302;2023-12-29T10:49:35;97224.31;;;10.52;83.21
72210;BME280;60113;48.762;12.302;2023-12-29T10:52:10;97223.88;;;10.34;80.64
72210;BME280;60113;48.762;12.302;2023-12-29T10:54:36;97224.94;;;10.20;81.33
72210;BME280;60113;48.762;12.302;2023-12-29T10:57:02;97213.75;;;10.05;81.88
72210;BME280;60113;48.762;12.302;2023-12-29T10:59:28;97209.44;;;9.92;81.81
72210;BME280;60113;48.762;12.302;2023-12-29T11:01:54;97218.13;;;9.81;81.60
72210;BME280;60113;48.762;12.302;2023-12-29T11:04:22;97216.06;;;9.73;82.01
72210;BME280;60113;48.762;12.302;2023-12-29T11:06:47;97201.56;;;9.68;82.05
72210;BME280;60113;48.762;12.302;2023-12-29T11:09:30;97200.38;;;9.60;81.25
72210;BME280;60113;48.762;12.302;2023-12-29T11:12:01;97191.88;;;9.57;83.30
72210;BME280;60113;48.762;12.302;2023-12-29T11:14:27;97187.81;;;9.53;82.79
72210;BME280;60113;48.762;12.302;2023-12-29T11:16:56;97185.50;;;9.48;82.66
72210;BME280;60113;48.762;12.302;2023-12-29T11:19:22;97185.00;;;9.43;82.76
72210;BME280;60113;48.762;12.302;2023-12-29T11:21:57;97183.56;;;9.38;82.15
72210;BME280;60113;48.762;12.302;2023-12-29T11:24:23;97182.13;;;9.34;83.65
72210;BME280;60113;48.762;12.302;2023-12-29T11:26:49;97170.06;;;9.32;83.29
72210;BME280;60113;48.762;12.302;2023-12-29T11:29:16;97169.22;;;9.31;83.60
72210;BME280;60113;48.762;12.302;2023-12-29T11:31:42;97163.25;;;9.29;83.49
72210;BME280;60113;48.762;12.302;2023-12-29T11:34:16;97169.34;;;9.30;84.35
72210;BME280;60113;48.762;12.302;2023-12-29T11:36:46;97171.97;;;9.30;84.26
72210;BME280;60113;48.762;12.302;2023-12-29T11:39:28;97165.88;;;9.29;82.48
72210;BME280;60113;48.762;12.302;2023-12-29T11:44:37;97157.66;;;9.34;83.87
72210;BME280;60113;48.762;12.302;2023-12-29T11:47:03;97155.44;;;9.41;84.03
72210;BME280;60113;48.762;12.302;2023-12-29T11:49:58;97153.94;;;9.49;84.85
72210;BME280;60113;48.762;12.302;2023-12-29T11:52:35;97147.16;;;9.58;83.09
72210;BME280;60113;48.762;12.302;2023-12-29T11:55:10;97152.81;;;9.65;81.46
72210;BME280;60113;48.762;12.302;2023-12-29T11:57:36;97145.31;;;9.72;82.73
72210;BME280;60113;48.762;12.302;2023-12-29T12:00:04;97135.41;;;9.75;82.44
72210;BME280;60113;48.762;12.302;2023-12-29T12:02:31;97138.88;;;9.76;82.49
72210;BME280;60113;48.762;12.302;2023-12-29T12:04:56;97130.41;;;9.72;81.11
72210;BME280;60113;48.762;12.302;2023-12-29T12:09:47;97125.66;;;9.78;81.35
72210;BME280;60113;48.762;12.302;2023-12-29T12:12:41;97120.78;;;9.84;80.62
72210;BME280;60113;48.762;12.302;2023-12-29T12:18:04;97109.47;;;10.07;79.98
72210;BME280;60113;48.762;12.302;2023-12-29T12:20:31;97104.63;;;10.13;82.53
72210;BME280;60113;48.762;12.302;2023-12-29T12:23:01;97103.41;;;10.18;80.93
72210;BME280;60113;48.762;12.302;2023-12-29T12:25:29;97105.81;;;10.21;81.60
72210;BME280;60113;48.762;12.302;2023-12-29T12:27:56;97106.03;;;10.18;80.69
72210;BME280;60113;48.762;12.302;2023-12-29T12:30:22;97100.19;;;10.14;80.42
72210;BME280;60113;48.762;12.302;2023-12-29T12:32:57;97109.38;;;10.08;78.80
72210;BME280;60113;48.762;12.302;2023-12-29T12:35:23;97106.00;;;10.06;79.35
72210;BME280;60113;48.762;12.302;2023-12-29T12:37:48;97093.38;;;10.00;79.57
72210;BME280;60113;48.762;12.302;2023-12-29T12:40:26;97101.50;;;9.97;79.81
72210;BME280;60113;48.762;12.302;2023-12-29T12:42:54;97092.28;;;9.91;78.37
72210;BME280;60113;48.762;12.302;2023-12-29T12:45:21;97102.06;;;9.89;78.34
72210;BME280;60113;48.762;12.302;2023-12-29T12:47:55;97099.69;;;9.86;78.67
72210;BME280;60113;48.762;12.302;2023-12-29T12:50:26;97100.38;;;9.88;79.89
72210;BME280;60113;48.762;12.302;2023-12-29T12:52:51;97110.19;;;9.86;80.79
72210;BME280;60113;48.762;12.302;2023-12-29T12:55:17;97117.31;;;9.84;79.60
72210;BME280;60113;48.762;12.302;2023-12-29T12:57:43;97123.66;;;9.81;79.89
72210;BME280;60113;48.762;12.302;2023-12-29T13:00:09;97118.28;;;9.83;81.57
72210;BME280;60113;48.762;12.302;2023-12-29T13:02:35;97120.28;;;9.79;80.29
72210;BME280;60113;48.762;12.302;2023-12-29T13:05:01;97119.44;;;9.79;80.29
72210;BME280;60113;48.762;12.302;2023-12-29T13:07:30;97122.06;;;9.79;80.37
72210;BME280;60113;48.762;12.302;2023-12-29T13:09:56;97125.53;;;9.79;80.50